createdAt,value
2022-09-02T01:11:40.771Z,15.40
2022-09-02T01:14:07.869Z,15.50
2022-09-02T01:16:59.999Z,15.40
2022-09-02T01:19:35.824Z,15.40
2022-09-02T01:22:16.161Z,15.30
2022-09-02T01:24:43.135Z,15.40
2022-09-02T01:27:17.836Z,15.40
2022-09-02T01:29:46.313Z,15.40
2022-09-02T01:32:13.456Z,15.50
2022-09-02T01:34:40.427Z,15.50
2022-09-02T01:37:07.502Z,15.40
2022-09-02T01:39:34.573Z,15.50
2022-09-02T01:42:02.949Z,15.40
2022-09-02T01:44:29.936Z,15.40
2022-09-02T01:46:57.037Z,15.40
2022-09-02T01:49:24.472Z,15.30
2022-09-02T01:51:55.550Z,15.30
2022-09-02T01:54:23.520Z,15.20
2022-09-02T01:56:51.876Z,15.20
2022-09-02T01:59:20.863Z,15.20
2022-09-02T02:01:48.500Z,15.20
2022-09-02T02:04:18.084Z,15.10
2022-09-02T02:09:20.746Z,14.80
2022-09-02T02:11:48.692Z,14.80
2022-09-02T02:14:16.315Z,14.80
2022-09-02T02:16:50.338Z,14.80
2022-09-02T02:19:18.234Z,14.80
2022-09-02T02:21:45.337Z,14.70
2022-09-02T02:24:12.477Z,14.70
2022-09-02T02:26:39.454Z,14.70
2022-09-02T02:29:08.765Z,14.70
2022-09-02T02:31:37.712Z,14.70
2022-09-02T02:34:05.436Z,14.70
2022-09-02T02:36:33.881Z,14.70
2022-09-02T02:39:01.614Z,14.60
2022-09-02T02:41:31.590Z,14.60
2022-09-02T02:43:59.049Z,14.60
2022-09-02T02:46:26.460Z,14.60
2022-09-02T02:48:53.633Z,14.50
2022-09-02T02:51:20.697Z,14.50
2022-09-02T02:53:49.746Z,14.50
2022-09-02T02:56:17.118Z,14.40
2022-09-02T02:58:44.233Z,14.40
2022-09-02T03:01:11.576Z,14.40
2022-09-02T03:03:38.975Z,14.40
2022-09-02T03:06:06.333Z,14.40
2022-09-02T03:08:35.234Z,14.40
2022-09-02T03:11:02.622Z,14.40
2022-09-02T03:13:32.120Z,14.40
2022-09-02T03:16:01.017Z,14.40
2022-09-02T03:18:28.084Z,14.40
2022-09-02T03:20:55.848Z,14.40
2022-09-02T03:23:23.796Z,14.40
2022-09-02T03:25:50.942Z,14.40
2022-09-02T03:28:27.425Z,14.30
2022-09-02T03:30:55.296Z,14.30
2022-09-02T03:33:24.284Z,14.20
2022-09-02T03:35:51.898Z,14.30
2022-09-02T03:38:18.961Z,14.20
2022-09-02T03:40:46.164Z,14.10
2022-09-02T03:43:13.523Z,14.10
2022-09-02T03:45:41.854Z,14.10
2022-09-02T03:48:13.652Z,14.20
2022-09-02T03:50:44.756Z,14.10
2022-09-02T03:53:19.780Z,14.20
2022-09-02T03:55:51.128Z,14.10
2022-09-02T03:58:20.243Z,14.10
2022-09-02T04:00:54.018Z,14.20
2022-09-02T04:03:23.294Z,14.20
2022-09-02T04:05:52.249Z,14.10
2022-09-02T04:08:20.343Z,14.10
2022-09-02T04:10:48.289Z,14.20
2022-09-02T04:13:15.856Z,14.20
2022-09-02T04:15:47.944Z,14.10
2022-09-02T04:19:30.716Z,14.10
2022-09-02T04:22:16.428Z,14.10
2022-09-02T04:24:43.872Z,13.90
2022-09-02T04:27:10.898Z,14.00
2022-09-02T04:29:37.845Z,14.10
2022-09-02T04:32:04.994Z,14.10
2022-09-02T04:34:32.999Z,14.10
2022-09-02T04:37:00.074Z,14.20
2022-09-02T04:39:27.095Z,14.10
2022-09-02T04:41:54.095Z,14.20
2022-09-02T04:44:21.768Z,14.10
2022-09-02T04:46:50.319Z,14.10
2022-09-02T04:49:20.313Z,14.10
2022-09-02T04:51:50.641Z,14.10
2022-09-02T04:54:17.797Z,14.10
2022-09-02T04:56:48.165Z,14.10
2022-09-02T04:59:15.481Z,14.10
2022-09-02T05:01:51.048Z,14.10
2022-09-02T05:04:23.937Z,14.20
2022-09-02T05:06:51.520Z,14.20
2022-09-02T05:09:19.868Z,14.30
2022-09-02T05:11:52.268Z,14.30
2022-09-02T05:21:57.534Z,17.10
2022-09-02T05:27:00.046Z,17.70
2022-09-02T05:29:28.666Z,18.00
2022-09-02T05:31:57.462Z,18.20
2022-09-02T05:34:25.772Z,18.70
2022-09-02T05:36:56.960Z,19.40
2022-09-02T05:39:26.004Z,19.60
2022-09-02T05:41:53.924Z,19.80
2022-09-02T05:44:20.874Z,19.90
2022-09-02T05:46:49.145Z,19.90
2022-09-02T05:49:17.786Z,20.20
2022-09-02T05:52:00.761Z,20.40
2022-09-02T05:54:36.888Z,20.30
2022-09-02T05:57:12.959Z,20.60
2022-09-02T05:59:44.992Z,21.00
2022-09-02T06:02:18.198Z,21.70
2022-09-02T06:04:49.191Z,22.00
2022-09-02T06:07:20.896Z,22.40
2022-09-02T06:09:50.298Z,23.20
2022-09-02T06:12:20.477Z,23.60
2022-09-02T06:14:49.891Z,24.10
2022-09-02T06:17:19.439Z,24.20
2022-09-02T06:19:52.730Z,24.30
2022-09-02T06:22:23.530Z,24.10
2022-09-02T06:24:52.414Z,23.50
2022-09-02T06:27:23.705Z,23.80
2022-09-02T06:29:52.964Z,24.50
2022-09-02T06:32:22.266Z,25.00
2022-09-02T06:34:53.376Z,24.90
2022-09-02T06:37:23.903Z,24.90
2022-09-02T06:39:51.121Z,24.70
2022-09-02T06:42:23.909Z,24.90
2022-09-02T06:45:26.285Z,24.80
2022-09-02T06:47:55.392Z,24.50
2022-09-02T06:50:22.575Z,25.00
2022-09-02T06:52:50.355Z,25.40
2022-09-02T06:55:18.485Z,25.80
2022-09-02T07:00:16.646Z,25.10
2022-09-02T07:02:43.988Z,25.00
2022-09-02T07:05:11.593Z,24.80
2022-09-02T07:07:42.238Z,24.40
2022-09-02T07:10:14.484Z,24.90
2022-09-02T07:12:45.103Z,24.80
2022-09-02T07:15:15.865Z,24.40
2022-09-02T07:17:43.963Z,24.50
2022-09-02T07:20:21.141Z,24.90
2022-09-02T07:22:53.188Z,24.20
2022-09-02T07:25:21.290Z,24.50
2022-09-02T07:27:51.327Z,24.90
2022-09-02T07:30:19.210Z,24.30
2022-09-02T07:32:49.673Z,23.30
2022-09-02T07:35:19.543Z,22.80
2022-09-02T07:40:15.437Z,23.70
2022-09-02T07:42:43.984Z,24.00
2022-09-02T07:45:12.537Z,24.30
2022-09-02T07:47:41.621Z,23.90
2022-09-02T07:50:21.467Z,23.90
2022-09-02T07:55:26.907Z,22.20
2022-09-02T07:57:55.580Z,22.40
2022-09-02T08:00:27.356Z,22.50
2022-09-02T08:02:57.668Z,22.30
2022-09-02T08:05:31.481Z,22.10
2022-09-02T08:07:59.019Z,22.40
2022-09-02T08:10:29.422Z,22.30
2022-09-02T08:13:00.705Z,22.50
2022-09-02T08:15:30.397Z,22.60
2022-09-02T08:17:58.778Z,22.60
2022-09-02T08:23:05.041Z,22.30
2022-09-02T08:25:40.815Z,22.20
2022-09-02T08:28:08.115Z,21.90
2022-09-02T08:30:35.424Z,22.00
2022-09-02T08:33:02.464Z,22.30
2022-09-02T08:35:29.409Z,22.20
2022-09-02T08:38:02.145Z,22.60
2022-09-02T08:40:40.793Z,22.70
2022-09-02T08:43:29.312Z,22.80
2022-09-02T08:46:00.808Z,22.90
2022-09-02T08:48:56.067Z,23.00
2022-09-02T08:51:51.020Z,22.70
2022-09-02T08:54:42.550Z,23.00
2022-09-02T08:57:10.428Z,23.20
2022-09-02T08:59:38.389Z,23.10
2022-09-02T09:02:46.707Z,22.90
2022-09-02T09:05:30.148Z,23.10
2022-09-02T09:08:18.050Z,23.20
2022-09-02T09:11:22.064Z,23.30
2022-09-02T09:19:55.591Z,23.50
2022-09-02T09:22:30.541Z,23.50
2022-09-02T09:24:58.515Z,23.40
2022-09-02T09:27:25.969Z,23.60
2022-09-02T09:29:53.377Z,23.60
2022-09-02T09:32:33.423Z,23.80
2022-09-02T09:37:50.167Z,24.30
2022-09-02T12:09:48.160Z,25.60
2022-09-02T12:12:37.310Z,25.60
2022-09-02T12:15:08.116Z,25.40
2022-09-02T12:17:46.239Z,25.70
2022-09-02T12:23:04.357Z,25.50
2022-09-02T12:28:21.745Z,26.90
2022-09-02T12:31:07.557Z,26.60
2022-09-02T12:38:34.206Z,27.20
2022-09-02T12:41:22.473Z,27.20
2022-09-02T12:44:05.543Z,26.30
2022-09-02T12:46:43.982Z,25.80
2022-09-02T12:54:39.598Z,26.60
2022-09-02T12:57:08.531Z,26.20
2022-09-02T12:59:41.718Z,26.00
2022-09-02T13:05:02.961Z,26.10
2022-09-02T13:08:02.758Z,25.90
2022-09-02T13:11:17.126Z,25.60
2022-09-02T13:13:55.910Z,25.50
2022-09-02T13:24:59.380Z,24.90
2022-09-02T13:28:03.999Z,24.90
2022-09-02T14:09:22.992Z,24.10
2022-09-02T14:11:50.689Z,24.10
2022-09-02T14:14:22.534Z,23.90
2022-09-02T16:32:14.511Z,23.20
2022-09-02T16:34:46.692Z,23.30
2022-09-02T16:37:14.406Z,23.10
2022-09-02T16:39:42.136Z,23.00
2022-09-02T16:42:09.146Z,23.00
2022-09-02T16:44:36.115Z,22.90
2022-09-02T18:00:23.367Z,21.20
2022-09-02T18:03:37.762Z,21.10
2022-09-02T18:06:21.953Z,21.00
2022-09-02T18:08:55.500Z,20.80
2022-09-02T18:11:22.844Z,20.70
2022-09-02T18:14:15.647Z,20.70
2022-09-02T18:17:04.309Z,20.70
2022-09-02T18:20:09.427Z,20.60
2022-09-02T18:23:03.240Z,20.50
2022-09-02T18:25:50.699Z,20.20
